Time;durP1;ratioP1;P1;durP2;ratioP2;P2;SDS_P1;SDS_P2;PMS_P1;PMS_P2;Temp;Humidity;BMP_temperature;BMP_pressure;BME280_temperature;BME280_humidity;BME280_pressure;Samples;Min_cycle;Max_cycle;Signal;HPM_P1;HPM_P2
2024/03/29 00:01:24;;;;;;;5.00;0.80;;;11.00;99.90;;;;;;7281759;19;20189;-80
2024/03/29 00:03:49;;;;;;;5.10;0.83;;;11.10;99.90;;;;;;7283261;19;20700;-80
2024/03/29 00:06:15;;;;;;;6.60;1.00;;;11.10;99.90;;;;;;7282912;19;20280;-80
2024/03/29 00:08:41;;;;;;;8.37;0.90;;;11.10;99.90;;;;;;7286773;19;20193;-79
2024/03/29 00:11:07;;;;;;;7.03;1.00;;;11.10;99.90;;;;;;7303732;19;20260;-80
2024/03/29 00:13:32;;;;;;;8.80;1.10;;;11.10;99.90;;;;;;7283135;19;20293;-80
2024/03/29 00:15:58;;;;;;;5.67;1.20;;;11.20;99.90;;;;;;7283105;19;20554;-80
2024/03/29 00:18:24;;;;;;;7.83;1.30;;;11.20;99.90;;;;;;7279967;19;20189;-79
2024/03/29 00:20:50;;;;;;;4.03;1.00;;;11.30;99.90;;;;;;7280601;19;20252;-79
2024/03/29 00:23:16;;;;;;;5.47;0.80;;;11.30;99.90;;;;;;7280516;19;20184;-79
2024/03/29 00:25:41;;;;;;;8.00;1.20;;;11.30;99.90;;;;;;7285505;19;20194;-80
2024/03/29 00:28:07;;;;;;;5.27;1.20;;;11.30;99.90;;;;;;7303769;19;20213;-80
2024/03/29 00:30:33;;;;;;;3.83;0.93;;;11.30;99.90;;;;;;7282157;19;20280;-79
2024/03/29 00:32:59;;;;;;;8.07;0.90;;;11.30;99.90;;;;;;7282081;19;20604;-79
2024/03/29 00:35:25;;;;;;;4.43;0.83;;;11.40;99.90;;;;;;7283358;19;20184;-79
2024/03/29 00:37:51;;;;;;;5.57;0.80;;;11.40;99.90;;;;;;7281169;19;20184;-79
2024/03/29 00:40:17;;;;;;;9.80;1.00;;;11.40;99.90;;;;;;7279112;19;20538;-80
2024/03/29 00:42:43;;;;;;;6.10;0.80;;;11.40;99.90;;;;;;7282650;19;20181;-80
2024/03/29 00:45:08;;;;;;;4.57;1.00;;;11.40;99.90;;;;;;7303849;19;21102;-80
2024/03/29 00:47:34;;;;;;;10.03;0.93;;;11.40;99.90;;;;;;7281360;19;20181;-80
2024/03/29 00:50:00;;;;;;;6.73;0.90;;;11.40;99.90;;;;;;7284057;19;20236;-80
2024/03/29 00:52:26;;;;;;;5.27;0.70;;;11.50;99.90;;;;;;7283333;19;20678;-80
2024/03/29 00:54:52;;;;;;;5.43;0.70;;;11.50;99.90;;;;;;7282509;19;20204;-80
2024/03/29 00:57:19;;;;;;;5.23;0.80;;;11.50;99.90;;;;;;7280357;19;20560;-80
2024/03/29 00:59:46;;;;;;;4.13;0.83;;;11.60;99.90;;;;;;7282189;19;20642;-80
2024/03/29 01:02:12;;;;;;;5.43;0.87;;;11.60;99.90;;;;;;7283076;19;20182;-79
2024/03/29 01:04:39;;;;;;;5.23;0.87;;;11.60;99.90;;;;;;7302949;19;20294;-80
2024/03/29 01:07:05;;;;;;;4.60;0.80;;;11.60;99.90;;;;;;7281322;19;20242;-80
2024/03/29 01:09:31;;;;;;;4.53;0.73;;;11.50;99.90;;;;;;7281904;19;20185;-80
2024/03/29 01:11:57;;;;;;;2.40;0.60;;;11.50;99.90;;;;;;7282066;19;20192;-80
2024/03/29 01:14:23;;;;;;;6.83;1.50;;;11.40;99.90;;;;;;7280377;19;20268;-80
2024/03/29 01:16:48;;;;;;;4.60;0.90;;;11.50;99.90;;;;;;7281131;19;20568;-80
2024/03/29 01:19:14;;;;;;;5.63;0.90;;;11.50;99.90;;;;;;7281904;19;20288;-80
2024/03/29 01:21:40;;;;;;;4.03;0.70;;;11.50;99.90;;;;;;7305791;19;20211;-80
2024/03/29 01:24:05;;;;;;;4.67;0.80;;;11.40;99.90;;;;;;7287593;19;20576;-80
2024/03/29 01:26:31;;;;;;;3.97;0.83;;;11.40;99.90;;;;;;7289068;19;20183;-80
2024/03/29 01:28:57;;;;;;;4.27;0.60;;;11.30;99.90;;;;;;7285841;19;20280;-80
2024/03/29 01:31:23;;;;;;;3.97;0.67;;;11.20;99.90;;;;;;7287721;19;20291;-80
2024/03/29 01:33:49;;;;;;;3.23;0.57;;;11.10;99.90;;;;;;7285364;19;20190;-80
2024/03/29 01:36:15;;;;;;;4.80;0.70;;;11.00;99.90;;;;;;7287669;19;20285;-80
2024/03/29 01:38:42;;;;;;;4.57;0.90;;;10.80;99.90;;;;;;7295851;19;20180;-79
2024/03/29 01:41:07;;;;;;;4.23;0.60;;;10.70;99.90;;;;;;7308303;19;20198;-80
2024/03/29 01:43:33;;;;;;;8.47;0.93;;;10.60;99.90;;;;;;7283253;19;20185;-80
2024/03/29 01:45:59;;;;;;;4.60;0.50;;;10.50;99.90;;;;;;7287179;19;20195;-80
2024/03/29 01:48:26;;;;;;;3.07;0.57;;;10.50;99.90;;;;;;7287364;19;20192;-79
2024/03/29 01:50:57;;;;;;;2.43;0.57;;;10.40;99.90;;;;;;7287682;19;20185;-80
2024/03/29 01:53:24;;;;;;;2.70;0.50;;;10.30;99.90;;;;;;7286992;19;20933;-80
2024/03/29 01:55:50;;;;;;;4.13;0.40;;;10.20;99.90;;;;;;7288017;19;20184;-79
2024/03/29 01:58:20;;;;;;;1.27;0.30;;;10.10;99.90;;;;;;7291106;19;20191;-79
2024/03/29 02:00:54;;;;;;;4.53;0.60;;;9.80;99.90;;;;;;7289572;19;20195;-80
2024/03/29 02:03:20;;;;;;;1.57;0.40;;;9.60;99.90;;;;;;7287537;19;20215;-79
2024/03/29 02:05:49;;;;;;;3.77;1.27;;;9.50;99.90;;;;;;7285405;19;20207;-79
2024/03/29 02:08:16;;;;;;;1.77;0.30;;;9.40;99.90;;;;;;7288249;19;20184;-80
2024/03/29 02:10:43;;;;;;;1.80;0.50;;;9.50;99.90;;;;;;7288457;19;20184;-80
2024/03/29 02:13:09;;;;;;;1.10;0.30;;;9.50;99.90;;;;;;7307837;19;20195;-80
2024/03/29 02:15:35;;;;;;;4.23;0.60;;;9.60;99.90;;;;;;7287305;19;20703;-80
2024/03/29 02:18:01;;;;;;;5.70;0.57;;;9.70;99.90;;;;;;7287454;19;20194;-80
2024/03/29 02:20:27;;;;;;;2.97;0.83;;;9.70;99.90;;;;;;7288746;19;20212;-80
2024/03/29 02:22:55;;;;;;;3.20;0.73;;;9.80;99.90;;;;;;7289723;19;20188;-81
2024/03/29 02:25:21;;;;;;;4.03;0.80;;;9.80;99.90;;;;;;7287185;19;20684;-80
2024/03/29 02:27:47;;;;;;;7.13;1.20;;;9.90;99.90;;;;;;7279744;19;20197;-80
2024/03/29 02:30:14;;;;;;;3.87;1.40;;;9.90;99.90;;;;;;7278216;19;20192;-80
2024/03/29 02:32:41;;;;;;;6.60;1.70;;;10.00;99.90;;;;;;7304365;19;20189;-80
2024/03/29 02:35:07;;;;;;;6.53;2.10;;;10.00;99.90;;;;;;7285142;19;20184;-81
2024/03/29 02:37:34;;;;;;;7.03;2.10;;;9.90;99.90;;;;;;7283625;19;20193;-79
2024/03/29 02:40:00;;;;;;;7.07;2.20;;;10.00;99.90;;;;;;7282662;19;20343;-80
2024/03/29 02:42:26;;;;;;;6.87;1.93;;;9.90;99.90;;;;;;7281959;19;20700;-80
2024/03/29 02:44:52;;;;;;;7.03;1.77;;;9.90;99.90;;;;;;7281403;19;20212;-79
2024/03/29 02:47:18;;;;;;;4.43;1.20;;;9.90;99.90;;;;;;7280759;19;20733;-80
2024/03/29 02:49:44;;;;;;;4.37;1.20;;;9.90;99.90;;;;;;7283981;19;20212;-80
2024/03/29 02:52:09;;;;;;;8.30;1.13;;;9.70;99.90;;;;;;7305803;19;20189;-80
2024/03/29 02:54:35;;;;;;;5.87;1.00;;;9.70;99.90;;;;;;7284127;19;20189;-80
2024/03/29 02:57:01;;;;;;;7.03;1.20;;;9.50;99.90;;;;;;7283445;19;20219;-80
2024/03/29 02:59:26;;;;;;;3.03;0.70;;;9.50;99.90;;;;;;7283610;19;20225;-80
2024/03/29 03:01:52;;;;;;;3.90;0.70;;;9.20;99.90;;;;;;7285835;19;20542;-80
2024/03/29 03:04:18;;;;;;;2.73;0.70;;;9.10;99.90;;;;;;7285051;19;20194;-80
2024/03/29 03:06:44;;;;;;;5.20;1.00;;;9.00;99.90;;;;;;7282889;19;20247;-80
2024/03/29 03:11:54;;;;;;;3.67;0.73;;;8.80;99.90;;;;;;7181214;19;2004498;-80
2024/03/29 03:14:20;;;;;;;5.80;0.90;;;8.80;99.90;;;;;;7284236;19;20195;-81
2024/03/29 03:16:47;;;;;;;7.20;1.20;;;8.70;99.90;;;;;;7283521;19;20536;-81
2024/03/29 03:19:13;;;;;;;6.30;1.23;;;8.70;99.90;;;;;;7282967;19;20189;-80
2024/03/29 03:21:38;;;;;;;5.30;1.10;;;8.80;99.90;;;;;;7307282;19;20180;-80
2024/03/29 03:24:04;;;;;;;3.73;0.97;;;8.80;99.90;;;;;;7283576;19;20185;-80
2024/03/29 03:26:30;;;;;;;8.73;1.30;;;8.80;99.90;;;;;;7282391;19;20184;-80
2024/03/29 03:28:56;;;;;;;5.90;1.03;;;8.80;99.90;;;;;;7288894;19;20709;-81
2024/03/29 03:31:22;;;;;;;4.97;1.27;;;8.80;99.90;;;;;;7281999;19;20212;-80
2024/03/29 03:33:48;;;;;;;5.63;1.50;;;8.70;99.90;;;;;;7282204;19;20199;-80
2024/03/29 03:36:13;;;;;;;5.63;1.30;;;8.60;99.90;;;;;;7288259;19;20570;-80
2024/03/29 03:38:39;;;;;;;4.63;1.00;;;8.60;99.90;;;;;;7309896;19;20182;-81
2024/03/29 03:41:05;;;;;;;5.53;1.00;;;8.60;99.90;;;;;;7288693;19;20654;-80
2024/03/29 03:43:31;;;;;;;6.67;1.33;;;8.60;99.90;;;;;;7279676;19;20194;-81
2024/03/29 03:46:05;;;;;;;3.60;0.83;;;8.70;99.90;;;;;;7282145;19;20192;-80
2024/03/29 03:48:31;;;;;;;5.20;1.27;;;8.70;99.90;;;;;;7286076;19;20188;-81
2024/03/29 03:50:57;;;;;;;2.70;0.90;;;8.80;99.90;;;;;;7283453;19;20239;-80
2024/03/29 03:53:23;;;;;;;5.70;1.00;;;8.90;99.90;;;;;;7282056;19;20186;-80
2024/03/29 03:55:49;;;;;;;3.33;0.90;;;8.90;99.90;;;;;;7282440;19;20192;-81
2024/03/29 03:58:15;;;;;;;4.80;1.10;;;8.90;99.90;;;;;;7284960;19;20202;-80
2024/03/29 04:00:40;;;;;;;4.03;1.10;;;8.80;99.90;;;;;;7305890;19;20286;-82
2024/03/29 04:03:06;;;;;;;4.27;1.00;;;8.90;99.90;;;;;;7283408;19;20186;-80
2024/03/29 04:05:32;;;;;;;6.23;0.80;;;8.90;99.90;;;;;;7284252;19;20177;-81
2024/03/29 04:07:59;;;;;;;5.83;0.90;;;8.80;99.90;;;;;;7283756;19;20181;-81
2024/03/29 04:10:25;;;;;;;4.37;0.90;;;8.80;99.90;;;;;;7282077;19;20275;-80
2024/03/29 04:12:51;;;;;;;6.33;0.97;;;8.70;99.90;;;;;;7280983;19;20666;-80
2024/03/29 04:15:17;;;;;;;5.10;0.70;;;8.80;99.90;;;;;;7282692;19;20185;-80
2024/03/29 04:17:42;;;;;;;2.10;0.70;;;8.70;99.90;;;;;;7285275;19;20192;-80
2024/03/29 04:20:09;;;;;;;2.37;0.70;;;8.70;99.90;;;;;;7303188;19;20186;-80
2024/03/29 04:22:34;;;;;;;4.27;0.70;;;8.50;99.90;;;;;;7281476;19;20176;-80
2024/03/29 04:25:01;;;;;;;5.93;1.10;;;8.50;99.90;;;;;;7283361;19;20249;-80
2024/03/29 04:27:26;;;;;;;2.33;0.70;;;8.30;99.90;;;;;;7284294;19;20206;-79
2024/03/29 04:29:53;;;;;;;1.93;0.70;;;8.30;99.90;;;;;;7280353;19;20181;-80
2024/03/29 04:32:19;;;;;;;3.23;0.60;;;8.30;99.90;;;;;;7281037;19;20215;-79
2024/03/29 04:34:49;;;;;;;4.77;0.77;;;8.40;99.90;;;;;;7280476;19;20193;-80
2024/03/29 04:37:16;;;;;;;3.80;0.60;;;8.40;99.90;;;;;;7280747;19;20267;-81
2024/03/29 04:39:43;;;;;;;6.37;0.70;;;8.30;99.90;;;;;;7290532;19;20187;-79
2024/03/29 04:42:09;;;;;;;2.07;0.80;;;8.30;99.90;;;;;;7304250;19;20185;-80
2024/03/29 04:44:35;;;;;;;3.63;0.93;;;8.30;99.90;;;;;;7279487;19;20181;-81
2024/03/29 04:47:01;;;;;;;2.27;0.87;;;8.30;99.90;;;;;;7280216;19;20200;-81
2024/03/29 04:49:34;;;;;;;5.83;0.80;;;8.30;99.90;;;;;;7275495;19;20650;-80
2024/03/29 04:52:00;;;;;;;3.37;0.80;;;8.20;99.90;;;;;;7284646;19;20198;-81
2024/03/29 04:54:27;;;;;;;3.20;1.00;;;8.30;99.90;;;;;;7283244;19;20257;-81
2024/03/29 04:56:53;;;;;;;4.73;1.07;;;8.30;99.90;;;;;;7283243;19;20192;-81
2024/03/29 04:59:20;;;;;;;6.20;1.10;;;8.30;99.90;;;;;;7285697;19;20186;-81
2024/03/29 05:01:50;;;;;;;3.47;1.00;;;8.40;99.90;;;;;;7292535;19;20201;-81
2024/03/29 05:04:18;;;;;;;2.40;0.77;;;8.50;99.90;;;;;;7293666;19;20682;-81
2024/03/29 05:06:47;;;;;;;5.37;0.87;;;8.50;99.90;;;;;;7293315;19;20204;-80
2024/03/29 05:09:13;;;;;;;5.27;0.90;;;8.50;99.90;;;;;;7297104;19;20182;-81
2024/03/29 05:11:39;;;;;;;5.73;1.10;;;8.60;99.90;;;;;;7314187;19;20545;-81
2024/03/29 05:14:05;;;;;;;3.63;1.07;;;8.70;99.90;;;;;;7291283;19;20193;-80
2024/03/29 05:16:32;;;;;;;4.17;1.27;;;8.80;99.90;;;;;;7290088;19;20332;-80
2024/03/29 05:18:57;;;;;;;4.67;1.00;;;8.90;99.90;;;;;;7286249;19;20187;-80
2024/03/29 05:21:23;;;;;;;3.63;0.90;;;8.90;99.90;;;;;;7288580;19;20198;-80
2024/03/29 05:23:49;;;;;;;4.33;0.90;;;9.00;99.90;;;;;;7288943;19;20556;-80
2024/03/29 05:26:16;;;;;;;6.53;1.20;;;9.20;99.90;;;;;;7285963;19;20189;-80
2024/03/29 05:28:41;;;;;;;5.47;1.20;;;9.30;99.90;;;;;;7302199;19;20199;-79
2024/03/29 05:31:14;;;;;;;4.93;1.10;;;9.30;99.90;;;;;;7302639;19;20184;-80
2024/03/29 05:33:41;;;;;;;8.83;1.50;;;9.40;99.90;;;;;;7288341;19;20197;-81
2024/03/29 05:36:10;;;;;;;5.43;1.30;;;9.40;99.90;;;;;;7287139;19;20187;-81
2024/03/29 05:38:37;;;;;;;5.20;1.30;;;9.50;99.90;;;;;;7286988;19;20732;-80
2024/03/29 05:41:03;;;;;;;11.30;2.30;;;9.60;99.90;;;;;;7287825;19;21261;-80
2024/03/29 05:43:29;;;;;;;11.03;1.77;;;9.60;99.90;;;;;;7286438;19;20193;-80
2024/03/29 05:45:55;;;;;;;5.30;1.83;;;9.70;99.90;;;;;;7286082;19;20251;-81
2024/03/29 05:48:20;;;;;;;7.80;1.83;;;9.90;99.90;;;;;;7286391;19;20590;-81
2024/03/29 05:50:46;;;;;;;10.10;1.43;;;9.90;99.90;;;;;;7287942;19;20259;-81
2024/03/29 05:53:12;;;;;;;5.57;1.27;;;10.00;99.90;;;;;;7297321;19;20184;-77
2024/03/29 05:55:38;;;;;;;31.27;8.13;;;10.10;99.90;;;;;;7305781;19;20219;-80
2024/03/29 05:58:05;;;;;;;13.00;3.30;;;10.10;99.90;;;;;;7286202;19;20205;-80
2024/03/29 06:00:34;;;;;;;24.90;5.03;;;10.20;99.90;;;;;;7285617;19;20316;-80
2024/03/29 06:03:03;;;;;;;12.67;1.90;;;10.20;99.90;;;;;;7282866;19;20199;-81
2024/03/29 06:05:30;;;;;;;7.10;1.50;;;10.30;99.90;;;;;;7285909;19;20189;-80
2024/03/29 06:07:56;;;;;;;10.67;1.90;;;10.40;99.90;;;;;;7281677;19;20220;-82
2024/03/29 06:10:22;;;;;;;7.13;1.47;;;10.50;99.90;;;;;;7288739;19;20202;-83
2024/03/29 06:12:48;;;;;;;12.60;2.57;;;10.40;99.90;;;;;;7284701;19;20185;-82
2024/03/29 06:17:58;;;;;;;8.60;1.73;;;10.40;99.90;;;;;;7287340;19;20189;-83
2024/03/29 06:20:24;;;;;;;9.67;1.57;;;10.30;99.90;;;;;;7286398;19;20197;-82
2024/03/29 06:22:50;;;;;;;6.13;1.37;;;10.30;99.90;;;;;;7285878;19;20185;-84
2024/03/29 06:25:16;;;;;;;8.63;1.40;;;10.40;99.90;;;;;;7287898;19;20256;-83
2024/03/29 06:27:47;;;;;;;3.43;1.30;;;10.50;99.90;;;;;;7295782;19;20181;-85
2024/03/29 06:30:19;;;;;;;6.77;1.73;;;10.60;99.90;;;;;;7286280;19;20193;-82
2024/03/29 06:32:45;;;;;;;6.90;1.40;;;10.70;99.90;;;;;;7284016;19;20188;-81
2024/03/29 06:35:12;;;;;;;7.53;1.33;;;10.70;99.90;;;;;;7308458;19;20213;-86
2024/03/29 06:37:38;;;;;;;9.23;1.50;;;10.70;99.90;;;;;;7289187;19;20183;-84
2024/03/29 06:40:04;;;;;;;10.03;1.67;;;10.70;99.90;;;;;;7286157;19;20186;-83
2024/03/29 06:42:31;;;;;;;4.80;1.67;;;10.80;99.90;;;;;;7282629;19;20233;-83
2024/03/29 06:44:58;;;;;;;6.10;1.57;;;10.90;99.90;;;;;;7285029;19;20248;-82
2024/03/29 06:47:25;;;;;;;6.60;1.60;;;10.90;99.90;;;;;;7286321;19;20213;-83
2024/03/29 06:49:50;;;;;;;6.60;1.77;;;11.00;99.90;;;;;;7284990;19;20193;-83
2024/03/29 06:52:16;;;;;;;5.70;1.80;;;11.10;99.90;;;;;;7285024;19;20185;-79
2024/03/29 06:54:42;;;;;;;7.20;1.90;;;11.10;99.90;;;;;;7299275;19;20210;-79
2024/03/29 06:57:09;;;;;;;6.93;2.03;;;11.00;99.90;;;;;;7303808;19;20182;-80
2024/03/29 06:59:36;;;;;;;9.47;2.30;;;11.00;99.90;;;;;;7281402;19;20289;-79
2024/03/29 07:02:01;;;;;;;8.07;2.00;;;11.10;99.90;;;;;;7283235;19;20544;-80
2024/03/29 07:04:27;;;;;;;8.17;2.33;;;11.10;99.90;;;;;;7284268;19;20187;-79
2024/03/29 07:06:54;;;;;;;8.90;2.37;;;11.10;99.90;;;;;;7285448;19;20185;-80
2024/03/29 07:09:21;;;;;;;10.77;3.10;;;11.10;99.90;;;;;;7283036;19;20622;-79
2024/03/29 07:11:52;;;;;;;13.90;5.30;;;11.00;99.90;;;;;;7281885;19;20311;-80
2024/03/29 07:14:18;;;;;;;10.33;3.10;;;11.00;99.90;;;;;;7283452;19;20200;-80
2024/03/29 07:16:45;;;;;;;8.67;2.47;;;10.80;99.90;;;;;;7280607;19;20269;-79
2024/03/29 07:19:16;;;;;;;7.20;2.50;;;10.90;99.90;;;;;;7301094;19;20199;-79
2024/03/29 07:21:45;;;;;;;8.00;2.20;;;10.70;99.90;;;;;;7282851;19;20221;-79
2024/03/29 07:24:11;;;;;;;9.60;2.33;;;10.70;99.90;;;;;;7315912;19;20189;-80
2024/03/29 07:26:37;;;;;;;6.83;2.37;;;10.70;99.90;;;;;;7282873;19;20200;-79
2024/03/29 07:29:05;;;;;;;10.23;2.97;;;10.60;99.90;;;;;;7284003;19;20572;-80
2024/03/29 07:31:31;;;;;;;8.40;2.20;;;10.60;99.90;;;;;;7282093;19;20193;-80
2024/03/29 07:33:58;;;;;;;6.37;2.30;;;10.70;99.90;;;;;;7284696;19;20192;-80
2024/03/29 07:36:26;;;;;;;7.73;2.53;;;10.60;99.90;;;;;;7283442;19;20205;-79
2024/03/29 07:38:52;;;;;;;7.03;2.80;;;10.70;99.90;;;;;;7282344;19;20193;-80
2024/03/29 07:41:18;;;;;;;6.63;2.67;;;10.70;99.90;;;;;;7282376;19;20193;-80
2024/03/29 07:43:53;;;;;;;7.10;2.20;;;10.80;99.90;;;;;;7283669;19;20644;-80
2024/03/29 07:46:21;;;;;;;6.73;2.07;;;10.80;99.90;;;;;;7274133;19;20271;-81
2024/03/29 07:48:48;;;;;;;8.73;2.20;;;10.90;99.90;;;;;;7282897;19;20194;-80
2024/03/29 07:51:13;;;;;;;6.63;2.07;;;10.90;99.90;;;;;;7283513;19;20293;-80
2024/03/29 07:53:40;;;;;;;7.37;1.70;;;11.10;99.90;;;;;;7305102;19;20193;-81
2024/03/29 07:56:05;;;;;;;7.37;1.90;;;11.30;99.90;;;;;;7283600;19;20564;-80
2024/03/29 07:58:32;;;;;;;6.30;2.13;;;11.30;99.90;;;;;;7283577;19;20861;-81
2024/03/29 08:00:59;;;;;;;5.53;1.60;;;11.60;99.90;;;;;;7290888;19;20197;-81
2024/03/29 08:03:26;;;;;;;9.07;2.03;;;11.50;99.90;;;;;;7310936;19;20194;-80
2024/03/29 08:06:05;;;;;;;6.70;1.90;;;11.60;99.90;;;;;;7290932;19;20747;-81
2024/03/29 08:08:32;;;;;;;9.13;1.97;;;11.70;99.90;;;;;;7283853;19;20286;-81
2024/03/29 08:10:59;;;;;;;8.50;2.00;;;11.80;99.90;;;;;;7283598;19;20196;-81
2024/03/29 08:13:26;;;;;;;6.13;1.90;;;11.90;99.90;;;;;;7282442;19;20208;-80
2024/03/29 08:16:00;;;;;;;8.17;2.40;;;11.80;99.90;;;;;;7282937;19;20201;-81
2024/03/29 08:18:27;;;;;;;6.63;1.87;;;11.80;99.90;;;;;;7282577;19;20250;-80
2024/03/29 08:20:55;;;;;;;6.50;2.30;;;11.90;99.90;;;;;;7283440;19;20202;-80
2024/03/29 08:23:21;;;;;;;8.80;2.40;;;11.90;99.90;;;;;;7281224;19;20193;-81
2024/03/29 08:25:48;;;;;;;7.10;2.53;;;12.10;99.90;;;;;;7282333;19;20226;-81
2024/03/29 08:28:14;;;;;;;9.13;2.07;;;12.30;99.90;;;;;;7279427;19;20197;-80
2024/03/29 08:30:40;;;;;;;6.90;1.77;;;12.60;99.90;;;;;;7302068;19;20227;-80
2024/03/29 08:33:05;;;;;;;5.07;2.10;;;12.70;99.90;;;;;;7276503;19;20202;-82
2024/03/29 08:35:34;;;;;;;6.10;1.60;;;13.10;99.90;;;;;;7278386;19;20205;-81
2024/03/29 08:38:00;;;;;;;5.43;1.50;;;13.70;99.90;;;;;;7281613;19;20199;-80
2024/03/29 08:40:34;;;;;;;4.10;1.60;;;14.00;99.90;;;;;;7283925;19;20217;-80
2024/03/29 08:43:00;;;;;;;5.40;1.33;;;14.00;99.90;;;;;;7283229;19;20203;-81
2024/03/29 08:45:26;;;;;;;4.70;1.50;;;14.10;99.90;;;;;;7285955;19;20233;-80
2024/03/29 08:47:52;;;;;;;4.33;1.10;;;13.70;99.90;;;;;;7287398;19;20737;-79
2024/03/29 08:50:18;;;;;;;4.83;1.40;;;13.90;99.90;;;;;;7283470;19;20229;-81
2024/03/29 08:52:45;;;;;;;3.90;1.27;;;14.00;99.90;;;;;;7281036;19;20194;-79
2024/03/29 08:55:11;;;;;;;4.43;1.40;;;13.70;99.90;;;;;;7303956;19;20184;-81
2024/03/29 08:57:37;;;;;;;4.93;1.43;;;13.70;99.90;;;;;;7282687;19;20684;-80
2024/03/29 09:00:03;;;;;;;3.23;1.10;;;13.60;99.90;;;;;;7281232;19;20189;-81
2024/03/29 09:02:29;;;;;;;3.07;1.50;;;13.90;99.90;;;;;;7281574;19;20222;-81
2024/03/29 09:04:55;;;;;;;3.47;2.27;;;14.20;99.90;;;;;;7282379;19;20251;-81
2024/03/29 09:07:22;;;;;;;3.43;1.40;;;14.60;99.90;;;;;;7283026;19;20280;-80
2024/03/29 09:09:49;;;;;;;7.17;1.30;;;15.10;99.90;;;;;;7278397;19;20189;-81
2024/03/29 09:12:16;;;;;;;5.37;1.13;;;15.90;99.90;;;;;;7281085;19;20719;-81
2024/03/29 09:14:42;;;;;;;3.97;1.20;;;16.20;99.90;;;;;;7300921;19;20683;-79
2024/03/29 09:17:11;;;;;;;6.23;1.40;;;15.90;99.90;;;;;;7290225;19;20203;-81
2024/03/29 09:19:37;;;;;;;6.03;1.43;;;15.80;99.90;;;;;;7277467;19;20242;-81
2024/03/29 09:22:02;;;;;;;5.53;1.60;;;15.60;99.90;;;;;;7282248;19;20669;-80
2024/03/29 09:24:29;;;;;;;4.27;1.40;;;15.30;99.90;;;;;;7281005;19;20249;-80
2024/03/29 09:26:54;;;;;;;3.83;1.47;;;15.00;99.90;;;;;;7281593;19;20251;-80
2024/03/29 09:29:20;;;;;;;4.40;1.40;;;15.10;99.90;;;;;;7278590;19;20709;-80
2024/03/29 09:31:46;;;;;;;3.60;1.20;;;15.30;99.90;;;;;;7278540;19;20291;-80
2024/03/29 09:34:12;;;;;;;3.27;1.10;;;15.50;99.90;;;;;;7298309;19;20274;-79
2024/03/29 09:36:38;;;;;;;3.77;1.23;;;15.40;99.90;;;;;;7295056;19;20270;-81
2024/03/29 09:39:04;;;;;;;4.03;1.00;;;15.20;99.90;;;;;;7279398;19;20193;-80
2024/03/29 09:41:31;;;;;;;2.37;1.00;;;15.10;99.90;;;;;;7286007;19;20241;-80
2024/03/29 09:43:59;;;;;;;4.47;1.00;;;15.20;99.90;;;;;;7286718;19;20187;-81
2024/03/29 09:46:27;;;;;;;3.00;1.00;;;15.30;99.90;;;;;;7284847;19;20181;-81
2024/03/29 09:48:55;;;;;;;2.17;1.07;;;15.60;99.90;;;;;;7285815;19;20337;-80
2024/03/29 09:51:21;;;;;;;2.60;1.20;;;15.70;99.90;;;;;;7286423;19;20209;-80
2024/03/29 09:53:48;;;;;;;2.73;1.20;;;16.10;99.90;;;;;;7286991;19;20266;-81
2024/03/29 09:56:14;;;;;;;4.70;1.57;;;16.30;99.90;;;;;;7286640;19;20181;-80
2024/03/29 09:58:40;;;;;;;2.03;0.87;;;16.50;99.90;;;;;;7306440;19;20184;-80
2024/03/29 10:01:07;;;;;;;3.50;1.10;;;17.50;99.90;;;;;;7284896;19;20188;-81
2024/03/29 10:03:40;;;;;;;4.60;1.00;;;18.10;99.90;;;;;;7286016;19;20286;-80
2024/03/29 10:06:09;;;;;;;3.50;1.17;;;19.00;99.90;;;;;;7279372;19;20547;-80
2024/03/29 10:08:35;;;;;;;3.73;1.27;;;19.00;99.90;;;;;;7282875;19;20679;-81
2024/03/29 10:11:01;;;;;;;2.87;1.20;;;19.00;99.90;;;;;;7285963;19;20220;-80
2024/03/29 10:13:27;;;;;;;3.13;1.50;;;19.60;99.90;;;;;;7284617;19;20315;-80
2024/03/29 10:15:57;;;;;;;2.30;1.10;;;19.60;99.90;;;;;;7285533;19;20257;-80
2024/03/29 10:18:27;;;;;;;5.40;1.37;;;19.40;99.90;;;;;;7285578;19;20184;-81
2024/03/29 10:21:06;;;;;;;3.13;1.20;;;19.50;99.90;;;;;;7284764;19;20224;-80
2024/03/29 10:23:35;;;;;;;2.07;0.90;;;19.60;99.90;;;;;;7286862;19;20644;-81
2024/03/29 10:26:04;;;;;;;3.13;1.07;;;19.10;99.90;;;;;;7286757;19;20200;-80
2024/03/29 10:28:35;;;;;;;4.13;1.13;;;18.90;99.90;;;;;;7283910;19;20681;-80
2024/03/29 10:31:04;;;;;;;3.47;0.93;;;18.10;99.90;;;;;;7286449;19;20195;-80
2024/03/29 10:33:31;;;;;;;3.13;1.40;;;17.90;99.90;;;;;;7285091;19;20188;-80
2024/03/29 10:36:01;;;;;;;4.40;1.80;;;17.50;99.90;;;;;;7285681;19;20199;-80
2024/03/29 10:38:27;;;;;;;2.20;1.40;;;17.30;99.90;;;;;;7286035;19;20656;-81
2024/03/29 10:40:53;;;;;;;5.83;1.63;;;18.20;99.90;;;;;;7282083;19;20214;-80
2024/03/29 10:43:20;;;;;;;3.37;1.50;;;18.60;99.90;;;;;;7283350;19;20553;-80
2024/03/29 10:45:47;;;;;;;4.07;1.57;;;18.80;99.90;;;;;;7285584;19;20189;-79
2024/03/29 10:48:15;;;;;;;7.50;1.40;;;19.30;99.90;;;;;;7296294;19;20220;-80
2024/03/29 10:50:42;;;;;;;4.50;1.33;;;19.20;99.90;;;;;;7308183;19;20200;-80
2024/03/29 10:53:11;;;;;;;4.30;1.40;;;19.30;99.90;;;;;;7285654;19;20189;-80
2024/03/29 10:55:37;;;;;;;3.53;1.20;;;19.30;99.90;;;;;;7285865;19;20667;-80
2024/03/29 10:58:11;;;;;;;4.03;1.10;;;19.70;99.90;;;;;;7303107;19;20191;-80
2024/03/29 11:00:46;;;;;;;4.30;1.13;;;19.50;99.90;;;;;;7301351;19;20193;-79
2024/03/29 11:03:24;;;;;;;2.73;0.90;;;20.00;99.90;;;;;;7298517;19;20203;-79
2024/03/29 11:05:50;;;;;;;3.23;0.50;;;19.90;99.90;;;;;;7288836;19;20196;-81
2024/03/29 11:08:23;;;;;;;2.50;0.73;;;21.30;99.90;;;;;;7286573;19;20190;-81
2024/03/29 11:10:55;;;;;;;3.33;0.87;;;23.10;99.90;;;;;;7283415;19;20736;-81
2024/03/29 11:13:50;;;;;;;2.60;0.67;;;22.80;99.90;;;;;;7284701;19;20196;-81
2024/03/29 11:16:16;;;;;;;2.33;0.57;;;23.10;99.90;;;;;;7263107;19;20189;-81
2024/03/29 11:18:42;;;;;;;3.50;0.67;;;22.70;99.90;;;;;;7304991;19;20559;-79
2024/03/29 11:21:10;;;;;;;2.57;0.53;;;23.20;99.90;;;;;;7297851;19;20185;-81
2024/03/29 11:23:37;;;;;;;3.07;0.53;;;23.20;99.90;;;;;;7282688;19;20197;-81
2024/03/29 11:26:03;;;;;;;4.00;0.80;;;22.70;99.90;;;;;;7284878;19;20214;-80
2024/03/29 11:28:35;;;;;;;2.13;0.57;;;22.40;99.90;;;;;;7284470;19;20832;-81
2024/03/29 11:31:07;;;;;;;1.80;0.50;;;21.80;99.90;;;;;;7281968;19;20205;-81
2024/03/29 11:33:45;;;;;;;2.60;0.40;;;21.30;99.90;;;;;;7284006;19;20213;-81
2024/03/29 11:36:12;;;;;;;1.53;0.60;;;20.90;99.90;;;;;;7285511;19;20186;-81
2024/03/29 11:38:39;;;;;;;2.20;0.57;;;21.20;99.90;;;;;;7283647;19;20710;-80
2024/03/29 11:41:14;;;;;;;3.87;0.60;;;21.50;99.90;;;;;;7283078;19;20204;-81
2024/03/29 11:43:42;;;;;;;4.17;0.60;;;21.80;99.90;;;;;;7285890;19;20188;-81
2024/03/29 11:46:09;;;;;;;1.97;0.43;;;22.30;99.90;;;;;;7285090;19;20197;-80
2024/03/29 11:48:36;;;;;;;2.87;0.80;;;22.30;99.90;;;;;;7283910;19;20734;-81
2024/03/29 11:51:09;;;;;;;2.23;0.60;;;22.70;99.90;;;;;;7283763;19;20581;-81
2024/03/29 11:53:35;;;;;;;2.23;0.50;;;22.50;99.90;;;;;;7288212;19;20196;-81
2024/03/29 11:56:04;;;;;;;3.80;0.70;;;21.40;99.90;;;;;;7282618;19;20212;-81
2024/03/29 11:58:31;;;;;;;2.83;0.80;;;20.70;99.90;;;;;;7282020;19;20659;-81
2024/03/29 12:00:58;;;;;;;2.90;0.93;;;20.80;99.90;;;;;;7284165;19;20198;-81
2024/03/29 12:03:27;;;;;;;3.33;1.30;;;20.80;99.90;;;;;;7283330;19;20684;-81
2024/03/29 12:05:55;;;;;;;5.33;1.70;;;21.20;99.90;;;;;;7281535;19;20203;-81
2024/03/29 12:08:24;;;;;;;3.83;1.57;;;20.80;99.90;;;;;;7281489;19;20545;-81
2024/03/29 12:10:50;;;;;;;3.70;1.60;;;20.20;99.90;;;;;;7284452;19;20190;-81
2024/03/29 12:13:17;;;;;;;3.77;1.60;;;19.90;99.90;;;;;;7282069;19;20256;-81
2024/03/29 12:15:44;;;;;;;3.97;1.60;;;19.80;99.90;;;;;;7296095;19;20580;-81
2024/03/29 12:18:09;;;;;;;5.50;2.10;;;20.10;99.90;;;;;;7304242;19;20191;-81
2024/03/29 12:20:38;;;;;;;4.20;1.70;;;19.70;99.90;;;;;;7282319;19;20233;-81
2024/03/29 12:23:13;;;;;;;4.57;1.60;;;20.00;99.90;;;;;;7281935;19;20208;-81
2024/03/29 12:25:39;;;;;;;2.93;1.37;;;20.40;99.90;;;;;;7281130;19;20197;-81
2024/03/29 12:28:06;;;;;;;4.03;1.27;;;20.50;99.90;;;;;;7282921;19;20228;-81
2024/03/29 12:30:33;;;;;;;3.10;1.00;;;20.90;99.90;;;;;;7282989;19;20193;-81
2024/03/29 12:33:07;;;;;;;4.47;0.90;;;20.80;99.90;;;;;;7282823;19;20201;-81
2024/03/29 12:35:33;;;;;;;3.97;1.00;;;21.30;99.90;;;;;;7279610;19;20206;-81
2024/03/29 12:38:01;;;;;;;3.23;0.83;;;21.60;99.90;;;;;;7280938;19;20196;-81
2024/03/29 12:40:29;;;;;;;3.33;0.70;;;21.90;99.90;;;;;;7282995;19;20201;-81
2024/03/29 12:42:56;;;;;;;2.63;0.80;;;22.30;99.90;;;;;;7281308;19;20203;-81
2024/03/29 12:45:22;;;;;;;2.33;0.73;;;21.70;99.90;;;;;;7281046;19;20193;-81
2024/03/29 12:47:49;;;;;;;2.97;0.97;;;21.30;99.90;;;;;;7281040;19;20321;-80
2024/03/29 12:50:33;;;;;;;4.67;1.10;;;20.80;99.90;;;;;;7281750;19;20226;-80
2024/03/29 12:53:00;;;;;;;2.70;1.00;;;20.50;99.90;;;;;;7280669;19;20215;-80
2024/03/29 12:55:30;;;;;;;3.10;1.20;;;20.70;99.90;;;;;;7281344;19;20198;-80